Kilsyth, United Kingdom
Current Conditions -  °F | °C
As of 4:20 PM on Friday 24 Oct 2014 (Local Time) from EGPF Reporting Station
Broken Clouds Broken Clouds  
Wind Chill: 52°   Ceiling: 2500
Heat Index: 52°   Visibility: 6mi
Dew Point: 46°   Wind: 14mph
Humidity: 82%   Direction: 220°SW
Pressure: 29.71"   Gusts: NA
Location:  55.98°N, 4.06°W
Report Text: EGPF 241520Z AUTO 22012KT 9999 BKN025 BKN041 11/08 Q1006
Loading
Personal Weather Stations






























Interactive Weather Map New forecast layout! Learn more

10-Day Weather Forecast

Advertisements
Track Severe Weather on mobile